Time;durP1;ratioP1;P1;durP2;ratioP2;P2;SDS_P1;SDS_P2;PMS_P1;PMS_P2;Temp;Humidity;BMP_temperature;BMP_pressure;BME280_temperature;BME280_humidity;BME280_pressure;Samples;Min_cycle;Max_cycle;Signal;HPM_P1;HPM_P2
2022/09/12 00:00:22;;;;;;;5.45;3.80;;;;;;;12.54;100.00;98858.47;5037193;28;20043;-58
2022/09/12 00:03:26;;;;;;;6.15;3.70;;;;;;;12.27;100.00;98851.72;5041199;28;20048;-52
2022/09/12 00:06:16;;;;;;;7.00;4.43;;;;;;;12.30;100.00;98849.69;5029650;28;20037;-53
2022/09/12 00:09:07;;;;;;;8.95;3.97;;;;;;;12.15;100.00;98854.28;5052190;28;20051;-52
2022/09/12 00:11:51;;;;;;;6.72;4.07;;;;;;;12.15;100.00;98849.03;5052443;28;20120;-55
2022/09/12 00:14:36;;;;;;;4.95;3.63;;;;;;;12.07;100.00;98854.84;5051865;28;20076;-57
2022/09/12 00:17:20;;;;;;;6.60;4.20;;;;;;;12.03;100.00;98848.13;5049826;28;20057;-55
2022/09/12 00:20:07;;;;;;;6.85;3.75;;;;;;;12.02;100.00;98849.06;5052555;28;20048;-56
2022/09/12 00:22:51;;;;;;;4.90;3.42;;;;;;;12.00;100.00;98850.97;5043034;28;20044;-56
2022/09/12 00:25:47;;;;;;;5.85;4.22;;;;;;;12.00;100.00;98855.38;5027516;28;20064;-59
2022/09/12 00:28:34;;;;;;;6.00;4.07;;;;;;;11.99;100.00;98866.84;5042067;28;20037;-54
2022/09/12 00:31:25;;;;;;;5.10;3.80;;;;;;;11.98;100.00;98863.38;5035188;28;20443;-55
2022/09/12 00:34:09;;;;;;;5.45;3.72;;;;;;;12.03;100.00;98853.38;5036974;28;20055;-57
2022/09/12 00:36:54;;;;;;;4.97;3.58;;;;;;;11.99;100.00;98851.94;5051486;28;20445;-59
2022/09/12 00:39:39;;;;;;;5.85;3.85;;;;;;;12.00;100.00;98858.00;5041194;28;20028;-56
2022/09/12 00:42:23;;;;;;;4.88;3.47;;;;;;;12.01;100.00;98855.25;5053415;28;20041;-56
2022/09/12 00:45:22;;;;;;;5.35;3.60;;;;;;;11.92;100.00;98855.94;5051353;28;20036;-52
2022/09/12 00:48:21;;;;;;;5.38;3.65;;;;;;;11.92;100.00;98845.44;5027038;28;20480;-54
2022/09/12 00:51:06;;;;;;;6.97;4.20;;;;;;;11.90;100.00;98842.94;5051247;28;20052;-54
2022/09/12 00:53:53;;;;;;;11.52;4.30;;;;;;;11.83;100.00;98845.16;5036933;28;20045;-55
2022/09/12 00:56:42;;;;;;;6.50;4.43;;;;;;;11.78;100.00;98841.19;5035832;28;20506;-57
2022/09/12 00:59:34;;;;;;;5.10;3.40;;;;;;;11.77;100.00;98835.09;5034485;28;20530;-57
2022/09/12 01:02:18;;;;;;;4.50;3.20;;;;;;;11.76;100.00;98840.47;5052161;28;20175;-53
2022/09/12 01:05:05;;;;;;;7.22;3.15;;;;;;;11.70;100.00;98832.09;5047162;28;20490;-55
2022/09/12 01:07:51;;;;;;;6.63;3.50;;;;;;;11.72;100.00;98839.03;5051586;28;20094;-56
2022/09/12 01:10:38;;;;;;;4.78;3.40;;;;;;;11.75;100.00;98833.56;5050855;28;20043;-58
2022/09/12 01:13:23;;;;;;;6.53;3.40;;;;;;;11.73;100.00;98835.44;5051225;28;20044;-55
2022/09/12 01:16:08;;;;;;;6.22;3.58;;;;;;;11.73;100.00;98838.06;5036277;28;20057;-56
2022/09/12 01:19:04;;;;;;;6.68;3.67;;;;;;;11.77;100.00;98829.84;5034388;28;20040;-54
2022/09/12 01:21:58;;;;;;;6.97;3.50;;;;;;;11.76;100.00;98835.22;5021668;28;20037;-55
2022/09/12 01:24:45;;;;;;;5.28;3.10;;;;;;;11.67;100.00;98836.75;5042764;28;20033;-55
2022/09/12 01:27:42;;;;;;;5.40;3.72;;;;;;;11.65;100.00;98836.00;5035516;28;20053;-53
2022/09/12 01:30:46;;;;;;;5.70;3.70;;;;;;;11.63;100.00;98832.66;5035672;28;20341;-56
2022/09/12 01:33:40;;;;;;;4.25;2.97;;;;;;;11.62;100.00;98830.97;5047188;28;20116;-54
2022/09/12 01:36:49;;;;;;;5.38;3.78;;;;;;;11.56;100.00;98833.09;5034971;28;20604;-57
2022/09/12 01:39:48;;;;;;;5.45;3.80;;;;;;;11.56;100.00;98830.47;5037972;28;20040;-54
2022/09/12 01:42:52;;;;;;;4.95;3.20;;;;;;;11.58;100.00;98825.94;5051555;28;20083;-55
2022/09/12 01:45:51;;;;;;;7.60;3.63;;;;;;;11.57;100.00;98833.94;5031069;28;20032;-56
2022/09/12 01:48:43;;;;;;;4.78;3.45;;;;;;;11.52;100.00;98836.03;5034427;28;20094;-52
2022/09/12 01:51:40;;;;;;;4.88;3.17;;;;;;;11.55;100.00;98830.56;5045897;28;20475;-56
2022/09/12 01:54:31;;;;;;;6.70;3.20;;;;;;;11.62;100.00;98817.84;5022021;28;20044;-55
2022/09/12 01:57:24;;;;;;;4.35;3.13;;;;;;;11.65;100.00;98821.06;5049594;28;20128;-58
2022/09/12 02:00:11;;;;;;;5.00;3.45;;;;;;;11.62;100.00;98820.47;5048286;28;20043;-54
2022/09/12 02:03:09;;;;;;;4.18;2.85;;;;;;;11.67;100.00;98821.81;5050923;28;20087;-56
2022/09/12 02:06:00;;;;;;;5.93;3.67;;;;;;;11.79;100.00;98820.09;5050081;28;20041;-53
2022/09/12 02:08:56;;;;;;;5.00;3.60;;;;;;;11.73;100.00;98814.44;5033746;28;20116;-55
2022/09/12 02:11:43;;;;;;;5.03;3.50;;;;;;;11.75;100.00;98817.81;5051845;28;20476;-55
2022/09/12 02:14:35;;;;;;;7.00;3.70;;;;;;;11.88;100.00;98812.50;5034983;28;20075;-56
2022/09/12 02:17:22;;;;;;;5.30;3.70;;;;;;;11.88;100.00;98815.94;5050582;28;20036;-57
2022/09/12 02:20:28;;;;;;;5.18;3.22;;;;;;;11.94;100.00;98810.25;5045609;28;20116;-53
2022/09/12 02:23:21;;;;;;;5.28;3.83;;;;;;;11.92;100.00;98806.06;5048083;28;20123;-54
2022/09/12 02:26:16;;;;;;;5.38;3.38;;;;;;;11.86;100.00;98802.13;5036786;28;20231;-55
2022/09/12 02:29:02;;;;;;;5.13;3.90;;;;;;;11.92;100.00;98806.06;5047481;28;20041;-54
2022/09/12 02:31:56;;;;;;;5.25;3.58;;;;;;;11.94;100.00;98802.38;5050473;28;20071;-55
2022/09/12 02:34:58;;;;;;;6.75;2.90;;;;;;;11.97;100.00;98806.56;5038589;28;20524;-55
2022/09/12 02:37:49;;;;;;;5.10;3.30;;;;;;;11.94;100.00;98799.75;5049398;28;20044;-56
2022/09/12 02:40:35;;;;;;;8.38;3.58;;;;;;;12.00;100.00;98798.47;5040308;28;20036;-55
2022/09/12 02:43:19;;;;;;;5.85;3.22;;;;;;;12.05;100.00;98796.34;5041104;28;20434;-57
2022/09/12 02:46:12;;;;;;;5.80;3.60;;;;;;;12.06;100.00;98798.00;5049124;28;20037;-53
2022/09/12 02:48:57;;;;;;;5.15;3.33;;;;;;;12.04;100.00;98801.69;5050374;28;20430;-57
2022/09/12 02:51:42;;;;;;;7.65;3.75;;;;;;;12.05;100.00;98795.50;5045936;28;20040;-55
2022/09/12 02:54:27;;;;;;;3.75;2.92;;;;;;;12.12;100.00;98796.75;5031482;28;20060;-53
2022/09/12 02:57:19;;;;;;;5.05;2.80;;;;;;;12.17;100.00;98796.41;5048572;28;20036;-56
2022/09/12 03:00:05;;;;;;;6.22;3.55;;;;;;;12.15;100.00;98796.53;5026051;28;20067;-57
2022/09/12 03:03:30;;;;;;;5.95;3.17;;;;;;;12.25;100.00;98786.16;5041738;28;20675;-55
2022/09/12 03:06:48;;;;;;;4.80;3.15;;;;;;;12.24;100.00;98791.53;5043277;28;20099;-54
2022/09/12 03:09:51;;;;;;;6.10;3.67;;;;;;;12.26;100.00;98789.59;5044941;28;20037;-55
2022/09/12 03:12:54;;;;;;;7.15;3.13;;;;;;;12.30;100.00;98794.53;5033674;28;20478;-57
2022/09/12 03:15:50;;;;;;;3.92;3.20;;;;;;;12.35;100.00;98794.19;5039382;28;20547;-52
2022/09/12 03:18:53;;;;;;;6.07;2.75;;;;;;;12.36;100.00;98787.97;5028228;28;20421;-56
2022/09/12 03:22:15;;;;;;;6.75;3.35;;;;;;;12.40;100.00;98780.69;5027814;28;20060;-55
2022/09/12 03:25:21;;;;;;;4.35;3.03;;;;;;;12.38;100.00;98788.69;4941184;28;20094;-54
2022/09/12 03:28:10;;;;;;;4.50;3.10;;;;;;;12.38;100.00;98795.72;4959721;28;20070;-55
2022/09/12 03:30:55;;;;;;;5.57;3.03;;;;;;;12.47;100.00;98791.59;4954827;28;20542;-54
2022/09/12 03:33:40;;;;;;;5.43;2.85;;;;;;;12.53;100.00;98786.66;4966510;28;20534;-55
2022/09/12 03:36:28;;;;;;;6.18;3.35;;;;;;;12.54;100.00;98792.78;4950392;28;20054;-52
2022/09/12 03:39:12;;;;;;;5.50;2.90;;;;;;;12.54;100.00;98792.78;4954637;28;20058;-52
2022/09/12 03:41:57;;;;;;;6.15;2.80;;;;;;;12.54;100.00;98788.38;4964160;28;20536;-51
2022/09/12 03:44:42;;;;;;;6.35;2.75;;;;;;;12.50;100.00;98788.72;4967329;28;20058;-55
2022/09/12 03:47:28;;;;;;;4.28;2.83;;;;;;;12.44;100.00;98790.00;4958771;28;20054;-53
2022/09/12 03:50:12;;;;;;;4.47;3.03;;;;;;;12.44;100.00;98784.75;4965157;28;20614;-57
2022/09/12 03:53:01;;;;;;;5.03;3.30;;;;;;;12.38;100.00;98785.22;4968763;28;20086;-53
2022/09/12 03:55:45;;;;;;;4.13;2.75;;;;;;;12.35;100.00;98785.47;4971299;28;20089;-58
2022/09/12 03:58:31;;;;;;;5.10;3.08;;;;;;;12.31;100.00;98787.47;4943060;28;20071;-55
2022/09/12 04:01:17;;;;;;;5.03;3.05;;;;;;;12.37;100.00;98787.00;4994779;28;20373;-57
2022/09/12 04:04:02;;;;;;;4.95;3.20;;;;;;;12.24;100.00;98794.97;5036839;28;20053;-57
2022/09/12 04:06:47;;;;;;;5.72;2.80;;;;;;;12.30;100.00;98789.28;5041854;28;20117;-53
2022/09/12 04:09:31;;;;;;;3.42;2.80;;;;;;;12.17;100.00;98794.63;5028420;28;20080;-57
2022/09/12 04:12:16;;;;;;;4.35;3.00;;;;;;;12.17;100.00;98791.16;5048966;28;20459;-59
2022/09/12 04:15:01;;;;;;;5.28;3.13;;;;;;;12.14;100.00;98794.00;5031237;28;20349;-57
2022/09/12 04:17:45;;;;;;;6.53;3.45;;;;;;;12.07;100.00;98798.84;5049986;28;20400;-57
2022/09/12 04:20:30;;;;;;;4.90;2.95;;;;;;;12.03;100.00;98795.59;5043104;28;20121;-56
2022/09/12 04:23:14;;;;;;;4.93;2.83;;;;;;;12.13;100.00;98798.41;5025346;28;20096;-58
2022/09/12 04:26:01;;;;;;;4.95;3.20;;;;;;;12.38;100.00;98800.97;5035196;28;20045;-58
2022/09/12 04:28:45;;;;;;;5.22;2.92;;;;;;;12.55;100.00;98799.72;5052248;28;20037;-58
2022/09/12 04:31:30;;;;;;;4.97;2.80;;;;;;;12.50;100.00;98791.34;5032485;28;20415;-56
2022/09/12 04:34:15;;;;;;;4.97;2.85;;;;;;;12.50;100.00;98793.97;5048157;28;20717;-57
2022/09/12 04:36:59;;;;;;;4.22;3.30;;;;;;;12.40;100.00;98794.66;5050687;28;20071;-57
2022/09/12 04:39:44;;;;;;;4.95;3.17;;;;;;;12.38;100.00;98788.69;5035697;28;20473;-58
2022/09/12 04:42:28;;;;;;;4.45;3.05;;;;;;;12.36;100.00;98793.22;5047546;28;20116;-57
2022/09/12 04:45:15;;;;;;;3.50;2.63;;;;;;;12.37;100.00;98786.19;5030757;28;20044;-59
2022/09/12 04:48:00;;;;;;;4.65;2.65;;;;;;;12.40;100.00;98791.22;5050888;28;20514;-58
2022/09/12 04:50:44;;;;;;;4.55;3.10;;;;;;;12.38;100.00;98788.69;5051015;28;20040;-59
2022/09/12 04:53:29;;;;;;;9.02;3.25;;;;;;;12.26;100.00;98787.81;5038840;28;20065;-59
2022/09/12 04:56:14;;;;;;;4.63;3.33;;;;;;;12.29;100.00;98800.72;5043737;28;20047;-58
2022/09/12 04:59:00;;;;;;;4.70;2.95;;;;;;;12.66;100.00;98791.84;5050496;28;20090;-62
2022/09/12 05:01:44;;;;;;;7.07;3.40;;;;;;;12.94;100.00;98789.69;5050394;28;20047;-63
2022/09/12 05:04:30;;;;;;;4.38;3.40;;;;;;;12.55;100.00;98787.41;5038430;28;20100;-62
2022/09/12 05:07:15;;;;;;;3.90;3.05;;;;;;;12.39;100.00;98793.00;5028574;28;20060;-63
2022/09/12 05:09:59;;;;;;;6.80;3.90;;;;;;;12.32;100.00;98797.03;5050458;28;20550;-62
2022/09/12 05:12:44;;;;;;;7.05;3.75;;;;;;;12.34;100.00;98796.94;5034750;28;20033;-64
2022/09/12 05:15:29;;;;;;;6.32;3.80;;;;;;;12.64;100.00;98798.16;5030482;28;20071;-64
2022/09/12 05:18:14;;;;;;;4.60;3.67;;;;;;;12.38;100.00;98791.31;5049180;28;20033;-64
2022/09/12 05:21:00;;;;;;;5.57;4.00;;;;;;;12.18;100.00;98798.06;5048350;28;20570;-64
2022/09/12 05:23:46;;;;;;;4.80;3.78;;;;;;;12.37;100.00;98797.50;5048882;28;20460;-67
2022/09/12 05:26:31;;;;;;;5.65;3.60;;;;;;;12.48;100.00;98807.22;5035097;28;20522;-63
2022/09/12 05:29:15;;;;;;;8.35;3.70;;;;;;;12.43;100.00;98807.59;5048747;28;20120;-65
2022/09/12 05:32:01;;;;;;;4.90;3.88;;;;;;;12.61;100.00;98808.91;5024317;28;20120;-64
2022/09/12 05:34:45;;;;;;;6.35;3.92;;;;;;;12.78;100.00;98818.13;5048342;28;20045;-61
2022/09/12 05:37:30;;;;;;;4.82;3.72;;;;;;;12.76;100.00;98820.88;5049772;28;20059;-64
2022/09/12 05:40:16;;;;;;;5.30;3.50;;;;;;;12.83;100.00;98825.66;5051125;28;20075;-62
2022/09/12 05:43:02;;;;;;;6.53;3.75;;;;;;;12.85;100.00;98823.75;5031039;28;20128;-65
2022/09/12 05:45:46;;;;;;;5.78;3.63;;;;;;;12.79;100.00;98823.28;5048575;28;20065;-64
2022/09/12 05:48:31;;;;;;;5.70;3.85;;;;;;;12.78;100.00;98837.38;5048979;28;20036;-64
2022/09/12 05:51:19;;;;;;;5.55;3.72;;;;;;;13.08;100.00;98834.25;5050893;28;20069;-64
2022/09/12 05:54:06;;;;;;;7.20;3.97;;;;;;;12.85;100.00;98821.97;5050225;28;20116;-64
2022/09/12 05:56:50;;;;;;;5.85;3.60;;;;;;;13.00;100.00;98814.69;5046736;28;20029;-65
2022/09/12 05:59:35;;;;;;;6.00;4.00;;;;;;;12.79;100.00;98819.81;5034898;28;20043;-63
2022/09/12 06:02:20;;;;;;;6.50;4.22;;;;;;;12.90;100.00;98814.56;5048473;28;20047;-63
2022/09/12 06:05:05;;;;;;;5.22;3.55;;;;;;;12.85;100.00;98832.47;5047561;28;20122;-61
2022/09/12 06:07:50;;;;;;;6.30;4.00;;;;;;;12.94;100.00;98826.50;5049968;28;20052;-64
2022/09/12 06:10:35;;;;;;;4.90;3.97;;;;;;;13.21;100.00;98836.78;5052255;28;20430;-64
2022/09/12 06:13:23;;;;;;;6.35;4.13;;;;;;;13.09;100.00;98830.69;5035364;28;20388;-64
2022/09/12 06:16:15;;;;;;;6.03;4.25;;;;;;;13.17;100.00;98820.41;5033760;28;20488;-64
2022/09/12 06:19:06;;;;;;;6.70;3.58;;;;;;;13.11;100.00;98828.75;5026499;28;20044;-63
2022/09/12 06:21:52;;;;;;;8.27;4.03;;;;;;;13.22;100.00;98835.84;5035488;28;20083;-64
2022/09/12 06:24:36;;;;;;;5.55;3.53;;;;;;;13.62;100.00;98837.97;5045873;28;20435;-63
2022/09/12 06:27:21;;;;;;;7.47;3.72;;;;;;;13.61;100.00;98841.53;5050236;28;20060;-64
2022/09/12 06:30:06;;;;;;;7.68;3.88;;;;;;;13.26;100.00;98843.34;5025086;28;20132;-64
2022/09/12 06:32:51;;;;;;;11.57;3.88;;;;;;;13.15;100.00;98851.25;5042373;28;20049;-64
2022/09/12 06:35:37;;;;;;;7.57;4.05;;;;;;;13.28;100.00;98851.13;5043862;28;20107;-64
2022/09/12 06:38:22;;;;;;;7.30;4.25;;;;;;;13.35;100.00;98857.56;5034961;28;20056;-64
2022/09/12 06:41:10;;;;;;;5.35;4.25;;;;;;;13.58;100.00;98852.31;5035846;28;20045;-63
2022/09/12 06:43:56;;;;;;;6.90;3.70;;;;;;;14.01;100.00;98850.66;5051069;28;20477;-64
2022/09/12 06:46:41;;;;;;;6.13;3.92;;;;;;;15.21;98.73;98842.50;5046380;28;20037;-62
2022/09/12 06:49:26;;;;;;;5.82;4.00;;;;;;;15.44;95.02;98846.75;5014026;28;20037;-62
2022/09/12 06:52:12;;;;;;;4.47;3.35;;;;;;;15.94;93.10;98850.31;5049094;28;20680;-62
2022/09/12 06:54:59;;;;;;;5.22;3.30;;;;;;;16.19;89.57;98848.94;5038795;28;20099;-63
2022/09/12 06:57:44;;;;;;;5.05;2.90;;;;;;;16.36;89.11;98850.06;5048855;28;20043;-63
2022/09/12 07:00:29;;;;;;;4.43;3.33;;;;;;;15.72;90.70;98853.06;5035465;28;20134;-63
2022/09/12 07:03:13;;;;;;;6.35;3.20;;;;;;;15.24;94.58;98847.50;5044530;28;20124;-64
2022/09/12 07:06:09;;;;;;;6.68;3.95;;;;;;;14.97;96.18;98854.22;5048766;28;20441;-64
2022/09/12 07:08:56;;;;;;;4.47;3.40;;;;;;;15.93;91.67;98851.28;5045961;28;20045;-61
2022/09/12 07:11:41;;;;;;;4.35;3.45;;;;;;;16.16;89.56;98865.06;5045971;28;20116;-64
2022/09/12 07:14:25;;;;;;;4.07;3.05;;;;;;;15.96;90.85;98858.94;5047310;28;20037;-64
2022/09/12 07:17:11;;;;;;;5.07;3.40;;;;;;;16.66;88.03;98857.94;5049008;28;20087;-64
2022/09/12 07:19:56;;;;;;;9.25;3.63;;;;;;;16.08;89.56;98864.94;5051766;28;20128;-64
2022/09/12 07:22:40;;;;;;;4.93;3.25;;;;;;;15.88;90.21;98862.25;5051416;28;20045;-64
2022/09/12 07:25:25;;;;;;;9.27;3.58;;;;;;;15.86;91.05;98864.22;5053567;28;20537;-64
2022/09/12 07:28:10;;;;;;;6.20;3.80;;;;;;;15.68;91.57;98867.53;5051134;28;20099;-63
2022/09/12 07:30:55;;;;;;;3.78;2.75;;;;;;;15.69;92.74;98876.25;5049901;28;20099;-64
2022/09/12 07:33:41;;;;;;;4.00;3.20;;;;;;;15.79;92.21;98874.47;5052807;28;20472;-63
2022/09/12 07:36:25;;;;;;;5.65;3.30;;;;;;;16.24;89.30;98873.16;5032624;28;20045;-62
2022/09/12 07:39:10;;;;;;;4.65;3.30;;;;;;;16.51;88.11;98878.72;5052718;28;20041;-63
2022/09/12 07:41:56;;;;;;;5.85;3.22;;;;;;;17.19;84.23;98878.69;5053037;28;20044;-64
2022/09/12 07:44:42;;;;;;;5.72;3.60;;;;;;;17.47;81.72;98878.72;5029205;28;20508;-63
2022/09/12 07:47:27;;;;;;;6.22;3.80;;;;;;;16.81;84.11;98873.38;5052166;28;20037;-64
2022/09/12 07:50:11;;;;;;;5.78;4.25;;;;;;;16.90;83.08;98869.00;5050984;28;20483;-64
2022/09/12 07:52:56;;;;;;;6.25;3.70;;;;;;;16.94;84.11;98873.06;5053478;28;20029;-63
2022/09/12 07:55:40;;;;;;;5.20;3.55;;;;;;;17.81;80.29;98874.59;5049506;28;20124;-64
2022/09/12 07:58:25;;;;;;;6.32;3.40;;;;;;;18.42;76.19;98876.69;5052492;28;20112;-63
2022/09/12 08:01:15;;;;;;;3.88;2.95;;;;;;;18.18;77.34;98878.16;5051660;28;20044;-64
2022/09/12 08:04:00;;;;;;;6.93;3.58;;;;;;;17.43;80.43;98877.34;5051724;28;20041;-64
2022/09/12 08:06:45;;;;;;;5.68;3.88;;;;;;;17.35;80.16;98886.84;5051096;28;20112;-65
2022/09/12 08:09:30;;;;;;;5.75;3.63;;;;;;;17.62;81.62;98884.34;5050230;28;20037;-65
2022/09/12 08:12:15;;;;;;;5.50;3.60;;;;;;;17.95;78.07;98886.53;5035486;28;20500;-64
2022/09/12 08:14:59;;;;;;;5.63;3.75;;;;;;;18.06;77.86;98886.31;5051520;28;20392;-65
2022/09/12 08:17:44;;;;;;;5.13;3.45;;;;;;;17.60;80.00;98881.84;5046876;28;20037;-64
2022/09/12 08:20:29;;;;;;;4.60;3.03;;;;;;;17.61;80.24;98882.66;5052996;28;20045;-63
2022/09/12 08:23:14;;;;;;;6.15;3.80;;;;;;;18.22;78.36;98890.97;5053642;28;20041;-64
2022/09/12 08:26:01;;;;;;;6.07;3.65;;;;;;;17.96;77.81;98888.19;5050021;28;20056;-64
2022/09/12 08:28:47;;;;;;;5.20;3.15;;;;;;;19.25;73.21;98885.22;5047935;28;20353;-65
2022/09/12 08:31:35;;;;;;;4.95;3.33;;;;;;;19.79;70.97;98886.72;5045345;28;20402;-66
2022/09/12 08:34:21;;;;;;;6.72;3.70;;;;;;;19.99;67.93;98878.47;5020398;28;20481;-66
2022/09/12 08:37:05;;;;;;;4.28;3.08;;;;;;;20.40;68.00;98879.53;5034098;28;20041;-66
2022/09/12 08:39:51;;;;;;;4.38;3.17;;;;;;;21.25;63.81;98880.03;5026457;28;20338;-67
2022/09/12 08:42:51;;;;;;;6.07;3.08;;;;;;;20.70;65.86;98878.97;5049741;28;20037;-65
2022/09/12 08:45:45;;;;;;;4.00;2.75;;;;;;;20.67;66.54;98885.47;5050209;28;20480;-64
2022/09/12 08:48:30;;;;;;;5.32;3.28;;;;;;;21.10;64.64;98882.59;5049145;28;20047;-66
2022/09/12 08:51:18;;;;;;;5.07;2.85;;;;;;;21.60;61.35;98881.56;5033586;28;20057;-65
2022/09/12 08:54:18;;;;;;;3.67;2.78;;;;;;;21.71;60.84;98883.84;5047330;28;20040;-65
2022/09/12 08:57:05;;;;;;;5.70;3.42;;;;;;;20.38;72.61;98882.34;5049721;28;20353;-57
2022/09/12 08:59:51;;;;;;;5.20;3.22;;;;;;;20.91;64.67;98887.28;5047221;28;20032;-73
2022/09/12 09:02:45;;;;;;;4.75;3.03;;;;;;;20.97;63.38;98876.97;5036102;28;20055;-66
2022/09/12 09:05:44;;;;;;;3.58;2.85;;;;;;;21.03;64.06;98877.13;5043421;28;20428;-64
2022/09/12 09:08:39;;;;;;;4.25;3.00;;;;;;;21.88;63.73;98873.94;5031578;28;20063;-64
2022/09/12 09:11:47;;;;;;;5.18;2.72;;;;;;;21.55;61.86;98868.75;5046882;28;20041;-66
2022/09/12 09:15:10;;;;;;;3.83;2.80;;;;;;;21.79;62.77;98861.66;5048154;28;20048;-65
2022/09/12 09:18:03;;;;;;;4.55;3.03;;;;;;;22.32;59.41;98871.63;5042637;28;20056;-69
2022/09/12 09:21:19;;;;;;;4.30;2.58;;;;;;;23.20;55.04;98869.44;5023546;28;20470;-68
2022/09/12 09:24:10;;;;;;;4.32;2.50;;;;;;;22.09;57.16;98866.28;5034112;28;20083;-68
2022/09/12 09:27:04;;;;;;;3.90;2.20;;;;;;;22.77;57.10;98869.06;5034175;28;20044;-67
2022/09/12 09:29:53;;;;;;;3.58;2.15;;;;;;;23.42;55.13;98870.38;5034212;28;20839;-70
2022/09/12 09:32:40;;;;;;;4.32;2.40;;;;;;;23.20;54.60;98869.44;5045755;28;20194;-69
2022/09/12 09:35:39;;;;;;;3.03;2.08;;;;;;;21.90;58.80;98861.25;5050634;28;20480;-69
2022/09/12 09:38:40;;;;;;;3.03;2.03;;;;;;;22.89;55.89;98866.78;5041677;28;20111;-68
2022/09/12 09:41:31;;;;;;;4.27;2.47;;;;;;;21.34;60.55;98869.34;5039260;28;20040;-68
2022/09/12 09:44:16;;;;;;;5.70;2.13;;;;;;;20.29;64.65;98859.38;5051105;28;20060;-68
2022/09/12 09:47:01;;;;;;;4.30;2.70;;;;;;;20.55;65.16;98859.22;5049963;28;20029;-66
2022/09/12 09:49:46;;;;;;;4.55;2.90;;;;;;;23.13;56.10;98847.97;5051185;28;20032;-69
2022/09/12 09:52:36;;;;;;;4.63;2.70;;;;;;;21.91;59.11;98854.09;5050963;28;20033;-68
2022/09/12 09:55:28;;;;;;;3.90;2.97;;;;;;;21.00;61.97;98848.19;4991994;28;20045;-68
2022/09/12 09:58:27;;;;;;;4.20;2.50;;;;;;;20.29;65.65;98849.59;4984085;28;20056;-67
2022/09/12 10:01:15;;;;;;;3.47;2.38;;;;;;;20.09;67.03;98849.06;5018746;28;20180;-69
2022/09/12 10:04:00;;;;;;;3.38;2.30;;;;;;;20.37;65.55;98847.94;5034444;28;20055;-58
2022/09/12 10:06:46;;;;;;;5.88;3.35;;;;;;;21.05;64.50;98845.81;5019161;28;20545;-69
2022/09/12 10:09:33;;;;;;;4.53;3.40;;;;;;;21.46;61.79;98835.97;5050054;28;20049;-68
2022/09/12 10:12:29;;;;;;;4.50;3.10;;;;;;;20.51;64.39;98849.06;5032482;28;20041;-68
2022/09/12 10:15:20;;;;;;;4.32;2.55;;;;;;;19.68;67.15;98845.31;5008726;28;20053;-69
2022/09/12 10:18:04;;;;;;;3.88;2.63;;;;;;;19.90;68.74;98850.19;5049241;28;20059;-67
2022/09/12 10:20:49;;;;;;;3.85;2.67;;;;;;;21.54;63.34;98843.94;5048973;28;20045;-67
2022/09/12 10:23:39;;;;;;;2.83;2.05;;;;;;;23.25;56.60;98843.84;5051712;28;20123;-67
2022/09/12 10:26:31;;;;;;;6.97;2.60;;;;;;;24.92;52.65;98843.97;5048906;28;20112;-67
2022/09/12 10:29:22;;;;;;;4.13;2.20;;;;;;;23.52;53.27;98843.34;5051193;28;20041;-68
2022/09/12 10:32:08;;;;;;;4.20;2.60;;;;;;;21.16;60.37;98849.97;5032352;28;20035;-69
2022/09/12 10:34:56;;;;;;;4.45;2.33;;;;;;;21.38;59.01;98836.88;5029692;28;20052;-48
2022/09/12 10:38:01;;;;;;;3.28;2.00;;;;;;;22.59;55.64;98841.84;5048357;28;20037;-70
2022/09/12 10:40:55;;;;;;;4.35;2.30;;;;;;;22.58;55.63;98841.03;5046342;28;20366;-70
2022/09/12 10:43:41;;;;;;;3.72;2.60;;;;;;;21.93;56.74;98838.75;5028439;28;20056;-70
2022/09/12 10:46:40;;;;;;;4.88;2.25;;;;;;;21.12;60.05;98837.16;5009730;28;20114;-68
2022/09/12 10:49:37;;;;;;;4.07;2.22;;;;;;;21.18;59.19;98839.13;5016337;28;20073;-68
2022/09/12 10:52:26;;;;;;;3.63;2.40;;;;;;;22.51;57.57;98843.59;5027855;28;20072;-70
2022/09/12 10:55:14;;;;;;;3.75;2.05;;;;;;;20.87;60.03;98831.88;5042974;28;20045;-69
2022/09/12 10:58:17;;;;;;;4.53;2.30;;;;;;;21.33;58.02;98827.75;5052299;28;20049;-69
2022/09/12 11:01:11;;;;;;;3.15;2.15;;;;;;;22.01;55.50;98836.03;5052080;28;20045;-65
2022/09/12 11:04:25;;;;;;;2.70;1.88;;;;;;;22.32;54.72;98831.59;5047502;28;20103;-68
2022/09/12 11:07:20;;;;;;;2.25;1.65;;;;;;;22.11;53.13;98824.28;5020627;28;20077;-67
2022/09/12 11:10:15;;;;;;;3.00;2.38;;;;;;;21.50;56.18;98823.16;5045463;28;20037;-69
2022/09/12 11:13:18;;;;;;;2.97;1.60;;;;;;;24.95;53.95;98808.75;5046551;28;20067;-68
2022/09/12 11:16:27;;;;;;;3.63;1.85;;;;;;;25.24;51.83;98814.03;5040836;28;20068;-68
2022/09/12 11:19:23;;;;;;;3.38;1.73;;;;;;;24.34;47.84;98802.16;5047444;28;20072;-68
2022/09/12 11:22:29;;;;;;;2.83;2.00;;;;;;;23.66;51.26;98806.91;5050322;28;20038;-68
2022/09/12 11:25:50;;;;;;;2.80;1.48;;;;;;;22.25;53.27;98811.97;5051202;28;20044;-66
2022/09/12 11:28:53;;;;;;;3.60;2.20;;;;;;;20.38;58.66;98802.56;5033014;28;21104;-67
2022/09/12 11:31:41;;;;;;;4.07;2.20;;;;;;;19.87;60.04;98802.69;5011100;28;20052;-67
2022/09/12 11:35:06;;;;;;;2.22;1.55;;;;;;;20.21;59.12;98812.34;5047732;28;20480;-67
2022/09/12 11:37:56;;;;;;;3.47;1.60;;;;;;;20.25;58.88;98808.38;5047138;28;20037;-67
2022/09/12 11:40:55;;;;;;;3.10;2.00;;;;;;;20.78;58.92;98810.59;5049617;28;20049;-65
2022/09/12 11:43:50;;;;;;;2.88;1.80;;;;;;;20.73;58.20;98815.59;5050180;28;20140;-66
2022/09/12 11:46:37;;;;;;;1.98;1.58;;;;;;;20.29;59.38;98823.00;5039716;28;20044;-68
2022/09/12 11:49:32;;;;;;;3.50;1.85;;;;;;;22.48;52.70;98821.78;5051572;28;20160;-65
2022/09/12 11:52:24;;;;;;;1.95;1.40;;;;;;;24.24;48.53;98807.84;5037723;28;20063;-66
2022/09/12 11:55:18;;;;;;;3.55;2.20;;;;;;;23.10;50.56;98797.59;5052036;28;20037;-70
2022/09/12 11:58:07;;;;;;;2.88;2.00;;;;;;;24.24;48.40;98807.84;5051323;28;20037;-69
2022/09/12 12:01:01;;;;;;;2.40;1.90;;;;;;;24.05;46.83;98794.09;5052023;28;20086;-73
2022/09/12 12:03:48;;;;;;;2.60;1.70;;;;;;;25.05;45.26;98802.22;5052120;28;20121;-72
2022/09/12 12:06:44;;;;;;;2.97;2.10;;;;;;;25.22;45.18;98791.94;5044796;28;20037;-66
2022/09/12 12:09:30;;;;;;;2.55;1.50;;;;;;;24.27;46.67;98794.09;5051764;28;20340;-67
2022/09/12 12:12:23;;;;;;;3.15;1.70;;;;;;;22.84;50.29;98793.56;5050971;28;20403;-65
2022/09/12 12:15:15;;;;;;;2.15;1.55;;;;;;;22.91;50.70;98789.16;5032565;28;20079;-66
2022/09/12 12:18:13;;;;;;;3.15;1.40;;;;;;;24.44;46.92;98783.09;5053036;28;20045;-65
2022/09/12 12:21:20;;;;;;;3.13;1.35;;;;;;;25.68;44.04;98768.19;5035416;28;20464;-65
2022/09/12 12:24:07;;;;;;;2.40;1.40;;;;;;;25.83;43.11;98770.69;5049571;28;20045;-71
2022/09/12 12:26:59;;;;;;;2.78;1.77;;;;;;;26.43;41.29;98764.47;4991047;28;20452;-66
2022/09/12 12:29:44;;;;;;;3.92;1.70;;;;;;;25.78;41.79;98760.56;4978161;28;20046;-65
2022/09/12 12:32:29;;;;;;;2.10;1.63;;;;;;;25.62;41.51;98758.25;4990550;28;20038;-63
2022/09/12 12:35:37;;;;;;;2.72;1.77;;;;;;;25.39;41.44;98759.44;4990031;28;20054;-64
2022/09/12 12:38:33;;;;;;;2.58;1.77;;;;;;;24.12;44.57;98762.88;4984897;28;20062;-64
2022/09/12 12:41:17;;;;;;;2.67;1.60;;;;;;;23.08;47.89;98773.75;4974917;28;20061;-64
2022/09/12 12:44:40;;;;;;;2.50;1.60;;;;;;;22.50;49.46;98772.56;4990972;28;20134;-63
2022/09/12 12:47:30;;;;;;;2.83;1.65;;;;;;;21.92;51.43;98764.28;4989202;28;20065;-63
2022/09/12 12:50:20;;;;;;;1.85;1.65;;;;;;;21.45;52.57;98761.56;4988881;28;20066;-64
2022/09/12 12:53:17;;;;;;;2.90;1.70;;;;;;;21.22;54.41;98760.53;4989554;28;20034;-64
2022/09/12 12:56:03;;;;;;;2.95;1.75;;;;;;;20.98;55.55;98767.66;4982315;28;20069;-65
2022/09/12 12:58:47;;;;;;;2.75;1.85;;;;;;;20.87;56.25;98762.66;5050973;28;20053;-64
2022/09/12 13:01:39;;;;;;;2.90;1.73;;;;;;;21.09;56.05;98761.09;5048758;28;20078;-64
2022/09/12 13:04:28;;;;;;;3.58;2.20;;;;;;;20.94;55.27;98768.16;5047637;28;20131;-63
2022/09/12 13:07:39;;;;;;;4.30;2.00;;;;;;;20.75;55.85;98764.88;5051552;28;20495;-62
2022/09/12 13:10:28;;;;;;;6.90;2.25;;;;;;;20.96;56.21;98764.31;5042195;28;20103;-63
2022/09/12 13:13:39;;;;;;;3.55;2.10;;;;;;;21.09;55.68;98761.09;5035900;28;20041;-63
2022/09/12 13:16:37;;;;;;;5.53;2.00;;;;;;;20.77;56.22;98769.03;5007486;28;20072;-63